Portada
METAR-TAF:

METAR-TAF

Aeroports :

Nawabshah, Pakistan

latitud: 26-15N, longitud: 068-22E, altitud: 37 m

Observació

L'informe es va fer fa 1 hora i 4 minuts, a les 11:00 UTC
Vent 4 kt del Nord-Est
Temperatura 37°C
Humitat 25%
Pressió 1008 hPa
Visibilitat: 6000 m

METAR: OPNH 211100Z 04504KT 6000 NSC 37/14 Q1008 NOSIG

Hora: 17:04 (12:04 UTC)

Pronòstic

L'informe es va fer fa 2 hores i 34 minuts, a les 09:30 UTC
Pronòstic vàlid del 21 a les 12 UTC al 22 a les 18 UTC
Vent 7 kt del Sud
Visibilitat: 4000 m
calitja
Temporalment
l' 22 a les 00 UTC al 22 a les 05 UTC
Vent 3 kt amb direcció variable
Visibilitat: 3000 m
calitja
A partir de les 22 a les 0600 UTC
Vent 10 kt del Sud-Oest
Visibilitat: 5000 m
calitja

TAF: OPNH 210930Z 2112/2218 18007KT 4000 HZ NSC TEMPO 2200/2205 VRB03KT 3000 HZ NSC FM220600 22010KT 5000 HZ NSC

Observacions i pronòstics meteorològics de més de 4000 aeroports (METAR i TAF).

Les estacions disponibles són els punts grocs i vermells al mapa.

Posi el ratolí al punt desitjat per veure el nom de l'estació.

Feu clic per veure les observacions i els pronòstics meteorològics.

Per canviar el mapa: feu clic els botons verds amb una creu de color negre per apropar; al botó verd amb un guió per allunyar la imatge; o en les fletxes verdes per a mapes adjacents.


METAR-TAF: